ZSSS/SHA METAR and TAF weather

Enter ICAO airport designator
Station Type Date Time Source
ZSSS METAR 2019/06/19 01:30 UTC NOAA

ZSSS 190130Z 02003MPS 350V080 9999 BKN015 OVC040 25/21 Q1007 NOSIG


Station Type Date Time Source
ZSSS Decoded METAR 2019/06/19 01:30 UTC NOAA

Shanghai / Hongqiao, China (ZSSS) 31-10N 121-26E 3M
Jun 18, 2019 - 09:30 PM EDT / 2019.06.19 0130 UTC
Wind: from the NNE (020 degrees) at 7 MPH (6 KT) (direction variable):0
Visibility: greater than 7 mile(s):0
Sky conditions: overcast
Temperature: 77 F (25 C)
Dew Point: 69 F (21 C)
Relative Humidity: 78%
Pressure (altimeter): 29.74 in. Hg (1007 hPa)
ob: ZSSS 190130Z 02003MPS 350V080 9999 BKN015 OVC040 25/21 Q1007 NOSIG
cycle: 1

Station Type Date Time Source
ZSSS TAF 2019/06/18 18:06 UTC NOAA

TAF ZSSS 181519Z 1818/1918 30004MPS 5000 BR SCT006 TX27/1906Z TN21/1819Z
BECMG 1822/1824 36005MPS
BECMG 1903/1905 07004MPS

Example: see airport list